HomeShort term forecast

Short term forecast

Graphical weather forecast for the next 48 hours for Montreal:
Short term forecast
This weather forecast is automatically refreshed every 3 hours.

Hourly Experimental Forecast for the next 48 hours

Overall summary: Rain starting later this morning, continuing until tomorrow morning.

 Date & Hour   Temp   Feel   Baro   Hum   Speed & Bearing   Wind Gust   Precip.%   Precip.   Visibility   Cloud cover   Conditions 
 08/08/2022 - 07:00  16.1°C  16.4°C  1014.8 hPa  100%  15.1 km/h   26.5 km/h  32%  0.23 mm/h  14.8km  100%  Possible Light Rain 
 08/08/2022 - 08:00  15.4°C  15.8°C  1015.0 hPa  100%  15.7 km/h   28.8 km/h  39%  1.07 mm/h  16.1km  100%  Rain 
 08/08/2022 - 09:00  15.3°C  15.7°C  1014.6 hPa  100%  15.7 km/h   30.0 km/h  50%  1.59 mm/h  13.7km  100%  Rain 
 08/08/2022 - 10:00  15.4°C  15.9°C  1014.6 hPa  100%  15.5 km/h   30.0 km/h  53%  1.68 mm/h  13.0km  100%  Rain 
 08/08/2022 - 11:00  15.6°C  15.9°C  1014.4 hPa  100%  16.7 km/h   29.7 km/h  55%  1.39 mm/h  16.1km  100%  Rain 
 08/08/2022 - 12:00  16.1°C  16.4°C  1014.2 hPa  100%  16.0 km/h   27.4 km/h  61%  1.85 mm/h  12.8km  100%  Rain 
 08/08/2022 - 13:00  16.6°C  16.9°C  1013.9 hPa  99%  16.1 km/h   27.2 km/h  58%  0.86 mm/h  12.7km  100%  Possible Light Rain 
 08/08/2022 - 14:00  16.9°C  17.2°C  1013.7 hPa  98%  15.6 km/h   26.9 km/h  61%  0.94 mm/h  12.0km  100%  Rain 
 08/08/2022 - 15:00  16.8°C  17.1°C  1013.2 hPa  97%  16.3 km/h   29.6 km/h  56%  0.80 mm/h  12.0km  99%  Possible Light Rain 
 08/08/2022 - 16:00  16.7°C  16.9°C  1012.5 hPa  95%  18.1 km/h   32.9 km/h  51%  0.64 mm/h  12.1km  100%  Possible Light Rain 
 08/08/2022 - 17:00  16.4°C  16.6°C  1011.9 hPa  94%  18.2 km/h   33.3 km/h  43%  0.51 mm/h  11.5km  100%  Possible Light Rain 
 08/08/2022 - 18:00  16.4°C  16.5°C  1011.4 hPa  92%  16.6 km/h   31.3 km/h  47%  0.54 mm/h  12.5km  100%  Possible Light Rain 
 08/08/2022 - 19:00  16.2°C  16.3°C  1011.2 hPa  92%  15.3 km/h   28.3 km/h  61%  1.53 mm/h  12.8km  100%  Rain 
 08/08/2022 - 20:00  17.2°C  17.3°C  1009.7 hPa  90%  13.4 km/h   21.9 km/h  67%  2.87 mm/h  12.9km  96%  Rain 
 08/08/2022 - 21:00  17.3°C  17.4°C  1009.6 hPa  89%  15.7 km/h   29.3 km/h  66%  2.33 mm/h  13.0km  94%  Rain 
 08/08/2022 - 22:00  17.0°C  17.0°C  1009.4 hPa  87%  16.5 km/h   32.0 km/h  58%  1.09 mm/h  16.1km  92%  Rain 
 08/08/2022 - 23:00  16.8°C  16.8°C  1009.2 hPa  86%  16.8 km/h   32.9 km/h  46%  0.57 mm/h  16.1km  90%  Possible Light Rain 
 09/08/2022 - 00:00  16.6°C  16.6°C  1009.3 hPa  86%  16.1 km/h   32.9 km/h  29%  0.31 mm/h  16.1km  89%  Possible Light Rain 
 09/08/2022 - 01:00  16.5°C  16.5°C  1009.3 hPa  86%  15.2 km/h   32.8 km/h  21%  0.17 mm/h  16.1km  89%  Overcast 
 09/08/2022 - 02:00  15.6°C  15.6°C  1010.0 hPa  87%  15.1 km/h   34.3 km/h  10%  0.10 mm/h  16.1km  98%  Overcast 
 09/08/2022 - 03:00  15.3°C  15.3°C  1010.3 hPa  90%  14.2 km/h   31.8 km/h  31%  3.64 mm/h  16.1km  99%  Rain 
 09/08/2022 - 04:00  15.0°C  15.0°C  1010.2 hPa  92%  13.6 km/h   29.7 km/h  22%  1.06 mm/h  16.1km  98%  Overcast 
 09/08/2022 - 05:00  14.9°C  14.9°C  1010.5 hPa  95%  12.7 km/h   26.2 km/h  22%  0.61 mm/h  16.1km  98%  Overcast 
 09/08/2022 - 06:00  14.9°C  15.0°C  1011.0 hPa  97%  12.4 km/h   25.1 km/h  20%  0.26 mm/h  16.1km  98%  Overcast 
 09/08/2022 - 07:00  15.2°C  15.3°C  1011.7 hPa  99%  12.2 km/h   24.2 km/h  14%  0.14 mm/h  16.1km  96%  Overcast 
 09/08/2022 - 08:00  15.6°C  15.9°C  1012.2 hPa  100%  13.6 km/h   29.8 km/h  10%  0.06 mm/h  16.1km  94%  Overcast 
 09/08/2022 - 09:00  16.0°C  16.3°C  1012.7 hPa  100%  14.6 km/h   29.7 km/h  8%  0.05 mm/h  16.1km  94%  Overcast 
 09/08/2022 - 10:00  16.4°C  16.7°C  1013.3 hPa  100%  15.7 km/h   29.1 km/h  7%  0.04 mm/h  16.1km  95%  Overcast 
 09/08/2022 - 11:00  17.0°C  17.3°C  1013.8 hPa  97%  17.0 km/h   27.3 km/h  4%  0.03 mm/h  16.1km  97%  Overcast 
 09/08/2022 - 12:00  17.6°C  17.8°C  1014.1 hPa  92%  17.3 km/h   25.9 km/h  2%  0.02 mm/h  16.1km  98%  Overcast 
 09/08/2022 - 13:00  18.8°C  19.0°C  1014.4 hPa  85%  16.6 km/h   23.6 km/h  0%  --  16.1km  97%  Overcast 
 09/08/2022 - 14:00  18.9°C  19.0°C  1015.6 hPa  82%  14.9 km/h   18.8 km/h  0%  --  16.1km  100%  Overcast 
 09/08/2022 - 15:00  19.8°C  19.9°C  1015.6 hPa  79%  14.1 km/h   18.2 km/h  0%  --  16.1km  100%  Overcast 
 09/08/2022 - 16:00  20.6°C  20.7°C  1015.8 hPa  74%  13.2 km/h   17.9 km/h  0%  --  16.1km  100%  Overcast 
 09/08/2022 - 17:00  21.0°C  21.0°C  1016.0 hPa  71%  12.1 km/h   18.3 km/h  0%  --  16.1km  99%  Overcast 
 09/08/2022 - 18:00  20.7°C  20.7°C  1016.3 hPa  70%  11.2 km/h   18.6 km/h  0%  --  16.1km  96%  Overcast 
 09/08/2022 - 19:00  20.2°C  20.2°C  1016.6 hPa  71%  10.2 km/h   19.7 km/h  0%  --  16.1km  97%  Overcast 
 09/08/2022 - 20:00  19.4°C  19.4°C  1016.8 hPa  72%  8.9 km/h   19.0 km/h  0%  --  16.1km  87%  Mostly Cloudy 
 09/08/2022 - 21:00  18.9°C  18.9°C  1017.2 hPa  73%  8.6 km/h   19.4 km/h  0%  --  16.1km  84%  Mostly Cloudy 
 09/08/2022 - 22:00  18.2°C  18.2°C  1017.5 hPa  74%  8.5 km/h   19.3 km/h  0%  --  16.1km  81%  Mostly Cloudy 
 09/08/2022 - 23:00  17.7°C  17.7°C  1017.6 hPa  76%  8.3 km/h   18.7 km/h  0%  --  16.1km  79%  Mostly Cloudy 
 10/08/2022 - 00:00  17.4°C  17.4°C  1017.7 hPa  77%  8.1 km/h   17.5 km/h  0%  --  16.1km  79%  Mostly Cloudy 
 10/08/2022 - 01:00  17.1°C  17.1°C  1017.6 hPa  78%  8.4 km/h   15.8 km/h  0%  --  16.1km  80%  Mostly Cloudy 
 10/08/2022 - 02:00  16.6°C  16.6°C  1017.7 hPa  80%  8.7 km/h   15.0 km/h  0%  --  16.1km  70%  Mostly Cloudy 
 10/08/2022 - 03:00  16.0°C  16.0°C  1017.7 hPa  83%  8.8 km/h   14.4 km/h  0%  --  16.1km  69%  Mostly Cloudy 
 10/08/2022 - 04:00  15.4°C  15.4°C  1017.9 hPa  85%  8.9 km/h   14.2 km/h  0%  --  16.1km  69%  Mostly Cloudy 
 10/08/2022 - 05:00  15.1°C  15.1°C  1017.9 hPa  87%  8.7 km/h   14.2 km/h  0%  --  16.1km  69%  Mostly Cloudy 
 10/08/2022 - 06:00  15.2°C  15.2°C  1018.1 hPa  89%  8.6 km/h   14.1 km/h  0%  --  16.1km  71%  Mostly Cloudy 

 

Past weather and reports

Past weatherFind in this section the past weather conditions, weather archive, graphics, reports and statistics.

Current conditions

Current weather condition for MontrealAll you need to know about the current weather conditions for Montreal. Weather data is updated every 10 minutes.

Weather forecast

Current Montreal weatherSince 2004, celinium.com website has provided accurate weather forecast for Montreal's island.